createdAt,value
2022-07-29T00:00:49.087Z,13.88
2022-07-29T00:02:53.415Z,12.63
2022-07-29T00:04:57.739Z,12.93
2022-07-29T00:07:01.976Z,14.18
2022-07-29T00:09:06.622Z,13.35
2022-07-29T00:11:10.989Z,12.88
2022-07-29T00:13:16.825Z,13.57
2022-07-29T00:15:21.205Z,12.93
2022-07-29T00:17:25.808Z,13.63
2022-07-29T00:19:30.053Z,13.60
2022-07-29T00:21:37.211Z,13.63
2022-07-29T00:23:41.401Z,12.80
2022-07-29T00:25:45.757Z,13.38
2022-07-29T00:27:50.099Z,13.65
2022-07-29T00:29:56.842Z,14.32
2022-07-29T00:32:01.536Z,13.65
2022-07-29T00:34:07.343Z,13.93
2022-07-29T00:36:10.658Z,14.88
2022-07-29T00:38:16.328Z,14.25
2022-07-29T00:40:23.663Z,14.60
2022-07-29T00:42:28.539Z,14.35
2022-07-29T00:44:32.797Z,13.82
2022-07-29T00:46:38.457Z,14.75
2022-07-29T00:48:42.823Z,13.13
2022-07-29T00:50:47.225Z,13.45
2022-07-29T00:52:52.421Z,14.02
2022-07-29T00:54:56.755Z,13.57
2022-07-29T00:57:01.483Z,13.35
2022-07-29T00:59:05.783Z,13.25
2022-07-29T01:01:10.078Z,13.90
2022-07-29T01:03:15.707Z,13.10
2022-07-29T01:05:22.240Z,13.15
2022-07-29T01:07:27.919Z,13.43
2022-07-29T01:09:46.133Z,14.07
2022-07-29T01:11:52.223Z,14.57
2022-07-29T01:13:56.651Z,13.43
2022-07-29T01:16:06.076Z,14.23
2022-07-29T01:18:18.794Z,13.00
2022-07-29T01:20:33.784Z,13.98
2022-07-29T01:23:06.936Z,13.63
2022-07-29T01:25:46.396Z,13.68
2022-07-29T01:28:15.236Z,13.93
2022-07-29T01:30:21.769Z,14.05
2022-07-29T01:32:31.512Z,13.02
2022-07-29T01:34:46.518Z,13.95
2022-07-29T01:36:57.675Z,13.98
2022-07-29T01:39:10.866Z,14.82
2022-07-29T01:41:19.767Z,13.80
2022-07-29T01:43:36.536Z,14.25
2022-07-29T01:45:45.539Z,14.25
2022-07-29T01:47:56.605Z,14.05
2022-07-29T01:50:03.286Z,14.45
2022-07-29T01:52:11.167Z,14.93
2022-07-29T01:54:20.815Z,15.95
2022-07-29T01:56:26.584Z,13.95
2022-07-29T01:58:33.465Z,14.02
2022-07-29T02:00:39.892Z,15.07
2022-07-29T02:02:50.779Z,14.13
2022-07-29T02:04:56.783Z,14.70
2022-07-29T02:07:04.543Z,14.82
2022-07-29T02:09:10.782Z,14.20
2022-07-29T02:11:15.189Z,14.63
2022-07-29T02:13:22.831Z,14.65
2022-07-29T02:15:29.516Z,15.18
2022-07-29T02:17:39.039Z,15.25
2022-07-29T02:19:47.791Z,14.77
2022-07-29T02:21:55.124Z,14.45
2022-07-29T02:24:02.230Z,15.00
2022-07-29T02:26:07.273Z,14.52
2022-07-29T02:28:11.949Z,15.25
2022-07-29T02:30:16.657Z,13.77
2022-07-29T02:32:23.458Z,15.77
2022-07-29T02:34:30.427Z,14.73
2022-07-29T02:36:37.127Z,16.00
2022-07-29T02:38:52.904Z,16.80
2022-07-29T02:40:59.720Z,15.50
2022-07-29T02:43:06.282Z,14.07
2022-07-29T02:45:11.694Z,16.02
2022-07-29T02:47:21.305Z,14.23
2022-07-29T02:49:34.399Z,15.65
2022-07-29T02:51:45.292Z,14.52
2022-07-29T02:53:53.969Z,15.07
2022-07-29T02:56:01.781Z,15.52
2022-07-29T02:58:10.828Z,15.05
2022-07-29T03:00:17.708Z,14.57
2022-07-29T03:02:23.892Z,15.25
2022-07-29T03:04:30.339Z,14.27
2022-07-29T03:06:38.492Z,15.23
2022-07-29T03:08:45.857Z,15.75
2022-07-29T03:10:50.533Z,15.27
2022-07-29T03:12:55.492Z,16.40
2022-07-29T03:15:01.364Z,16.08
2022-07-29T03:17:07.357Z,16.80
2022-07-29T03:19:12.093Z,16.67
2022-07-29T03:21:16.496Z,15.75
2022-07-29T03:23:22.634Z,16.88
2022-07-29T03:25:28.470Z,16.65
2022-07-29T03:27:32.693Z,15.45
2022-07-29T03:29:37.141Z,15.23
2022-07-29T03:31:43.711Z,15.55
2022-07-29T03:36:57.013Z,16.00
2022-07-29T03:39:02.968Z,15.15
2022-07-29T03:41:13.888Z,15.40
2022-07-29T03:43:20.716Z,16.08
2022-07-29T03:45:26.133Z,15.85
2022-07-29T03:47:49.904Z,16.00
2022-07-29T03:50:01.529Z,16.08
2022-07-29T03:52:08.239Z,14.77
2022-07-29T03:54:13.511Z,15.43
2022-07-29T03:56:22.159Z,16.88
2022-07-29T03:58:29.624Z,15.82
2022-07-29T04:00:34.736Z,16.30
2022-07-29T04:02:40.217Z,16.15
2022-07-29T04:04:44.660Z,16.65
2022-07-29T04:06:49.191Z,16.27
2022-07-29T04:08:53.697Z,16.38
2022-07-29T04:10:58.067Z,16.30
2022-07-29T04:13:03.887Z,17.60
2022-07-29T04:15:09.602Z,17.17
2022-07-29T04:17:13.890Z,16.40
2022-07-29T04:19:18.341Z,15.20
2022-07-29T04:21:22.644Z,15.48
2022-07-29T04:23:27.414Z,15.10
2022-07-29T04:25:31.963Z,14.70
2022-07-29T04:27:36.186Z,15.02
2022-07-29T04:29:57.138Z,13.55
2022-07-29T04:32:01.811Z,13.50
2022-07-29T04:34:06.272Z,13.70
2022-07-29T04:36:28.884Z,13.65
2022-07-29T04:38:34.195Z,13.82
2022-07-29T04:40:38.551Z,13.45
2022-07-29T04:42:46.899Z,13.43
2022-07-29T04:44:53.605Z,13.00
2022-07-29T04:46:59.004Z,13.05
2022-07-29T04:49:03.418Z,12.50
2022-07-29T04:51:08.007Z,12.63
2022-07-29T04:53:12.281Z,11.55
2022-07-29T04:55:16.736Z,12.85
2022-07-29T04:57:21.033Z,12.45
2022-07-29T04:59:26.252Z,12.18
2022-07-29T05:01:31.999Z,12.27
2022-07-29T05:03:36.280Z,10.88
2022-07-29T05:05:40.640Z,12.18
2022-07-29T05:07:45.011Z,11.82
2022-07-29T05:09:49.220Z,11.35
2022-07-29T05:11:53.534Z,11.50
2022-07-29T05:13:57.678Z,11.82
2022-07-29T05:16:02.162Z,11.95
2022-07-29T05:18:08.927Z,11.50
2022-07-29T05:20:13.653Z,11.15
2022-07-29T05:22:26.991Z,11.07
2022-07-29T05:24:31.671Z,11.68
2022-07-29T05:26:36.139Z,10.82
2022-07-29T05:28:40.338Z,11.27
2022-07-29T05:30:45.494Z,11.05
2022-07-29T05:32:49.762Z,11.23
2022-07-29T05:34:55.467Z,11.23
2022-07-29T05:37:00.054Z,10.02
2022-07-29T05:39:04.553Z,11.00
2022-07-29T05:41:08.885Z,9.55
2022-07-29T05:43:13.107Z,10.65
2022-07-29T05:45:17.268Z,10.27
2022-07-29T05:47:21.486Z,9.88
2022-07-29T05:49:27.562Z,9.75
2022-07-29T05:51:33.286Z,10.68
2022-07-29T05:53:38.313Z,10.10
2022-07-29T05:55:42.631Z,9.40
2022-07-29T05:57:47.319Z,9.95
2022-07-29T05:59:52.607Z,9.10
2022-07-29T06:01:58.294Z,9.20
2022-07-29T06:04:03.068Z,8.20
2022-07-29T06:06:08.368Z,8.48
2022-07-29T06:08:14.165Z,9.27
2022-07-29T06:10:18.473Z,8.90
2022-07-29T06:12:22.792Z,8.32
2022-07-29T06:14:27.549Z,8.88
2022-07-29T06:16:32.006Z,7.63
2022-07-29T06:18:36.304Z,8.40
2022-07-29T06:20:40.733Z,8.82
2022-07-29T06:22:45.074Z,8.55
2022-07-29T06:24:50.872Z,8.48
2022-07-29T06:26:55.228Z,8.32
2022-07-29T06:28:59.795Z,9.05
2022-07-29T06:31:04.194Z,9.65
2022-07-29T06:33:08.594Z,8.65
2022-07-29T06:35:41.118Z,8.13
2022-07-29T06:37:37.129Z,9.18
2022-07-29T06:39:43.533Z,8.23
2022-07-29T06:41:51.505Z,7.57
2022-07-29T06:43:56.895Z,7.82
2022-07-29T06:46:02.835Z,7.60
2022-07-29T06:48:07.898Z,7.25
2022-07-29T06:50:13.472Z,7.95
2022-07-29T06:52:17.743Z,7.30
2022-07-29T06:54:22.803Z,8.35
2022-07-29T06:56:27.759Z,8.15
2022-07-29T06:58:33.596Z,7.80
2022-07-29T07:00:37.867Z,8.05
2022-07-29T07:02:42.143Z,8.45
2022-07-29T07:04:46.411Z,7.93
2022-07-29T07:06:53.639Z,7.63
2022-07-29T07:08:58.008Z,7.78
2022-07-29T07:11:02.272Z,7.72
2022-07-29T07:13:07.915Z,8.48
2022-07-29T07:15:13.721Z,8.35
2022-07-29T07:17:18.057Z,8.23
2022-07-29T07:19:25.867Z,8.10
2022-07-29T07:21:31.241Z,7.85
2022-07-29T07:23:35.631Z,7.63
2022-07-29T07:25:40.004Z,8.45
2022-07-29T07:27:48.208Z,8.55
2022-07-29T07:29:52.506Z,8.38
2022-07-29T07:32:01.160Z,8.30
2022-07-29T07:34:06.022Z,7.72
2022-07-29T07:36:10.428Z,7.95
2022-07-29T07:38:20.576Z,7.47
2022-07-29T07:40:25.164Z,7.25
2022-07-29T07:42:29.467Z,6.68
2022-07-29T07:44:46.275Z,6.45
2022-07-29T07:47:03.871Z,7.60
2022-07-29T07:49:13.309Z,7.10
2022-07-29T07:51:17.699Z,6.25
2022-07-29T07:53:22.208Z,5.90
2022-07-29T07:55:42.379Z,6.47
2022-07-29T07:57:56.102Z,6.70
2022-07-29T08:00:00.356Z,6.57
2022-07-29T08:02:06.388Z,5.97
2022-07-29T08:04:10.921Z,5.50
2022-07-29T08:06:15.070Z,5.95
2022-07-29T08:08:19.304Z,6.95
2022-07-29T08:10:37.522Z,5.97
2022-07-29T08:12:41.708Z,5.40
2022-07-29T08:14:45.947Z,5.78
2022-07-29T08:16:50.381Z,5.72
2022-07-29T08:18:58.037Z,5.40
2022-07-29T08:21:02.230Z,5.43
2022-07-29T08:23:07.265Z,5.05
2022-07-29T08:25:11.933Z,5.47
2022-07-29T08:29:45.867Z,5.63
2022-07-29T08:31:50.357Z,5.38
2022-07-29T08:33:57.301Z,5.25
2022-07-29T08:36:03.403Z,4.95
2022-07-29T08:38:07.668Z,5.63
2022-07-29T08:40:12.920Z,5.60
2022-07-29T08:42:17.995Z,5.40
2022-07-29T08:44:29.638Z,4.72
2022-07-29T08:46:35.928Z,5.60
2022-07-29T08:48:41.461Z,5.60
2022-07-29T08:50:48.860Z,5.40
2022-07-29T08:52:59.379Z,5.40
2022-07-29T08:55:04.459Z,5.10
2022-07-29T08:57:09.559Z,4.15
2022-07-29T08:59:15.155Z,5.32
2022-07-29T09:01:36.448Z,5.97
2022-07-29T09:03:45.445Z,5.78
2022-07-29T09:05:52.502Z,5.45
2022-07-29T09:07:57.141Z,5.75
2022-07-29T09:10:02.003Z,5.18
2022-07-29T09:12:09.309Z,5.20
2022-07-29T09:14:16.950Z,5.47
2022-07-29T09:16:43.854Z,5.93
2022-07-29T09:18:49.018Z,5.97
2022-07-29T09:21:13.250Z,6.38
2022-07-29T09:23:24.222Z,5.90
2022-07-29T09:25:36.544Z,5.43
2022-07-29T09:27:41.347Z,4.82
2022-07-29T09:29:45.816Z,4.90
2022-07-29T09:31:51.790Z,5.43
2022-07-29T09:34:00.136Z,5.78
2022-07-29T09:36:13.004Z,6.28
2022-07-29T09:38:17.770Z,5.30
2022-07-29T09:40:28.035Z,5.55
2022-07-29T09:42:34.840Z,4.93
2022-07-29T09:44:49.129Z,5.63
2022-07-29T09:47:07.001Z,5.55
2022-07-29T09:49:12.494Z,5.30
2022-07-29T09:51:26.969Z,6.07
2022-07-29T09:53:42.513Z,4.93
2022-07-29T09:55:51.800Z,5.30
2022-07-29T09:58:16.460Z,5.13
2022-07-29T10:00:24.121Z,5.88
2022-07-29T10:02:33.027Z,5.00
2022-07-29T10:04:41.506Z,5.47
2022-07-29T10:07:04.397Z,5.40
2022-07-29T10:09:13.481Z,4.78
2022-07-29T10:11:19.603Z,5.50
2022-07-29T10:13:27.949Z,4.93
2022-07-29T10:15:34.319Z,5.32
2022-07-29T10:17:41.727Z,5.38
2022-07-29T10:19:46.797Z,5.05
2022-07-29T10:22:12.930Z,4.80
2022-07-29T10:24:17.899Z,5.03
2022-07-29T10:26:22.476Z,5.28
2022-07-29T10:28:26.958Z,5.00
2022-07-29T10:30:31.251Z,5.57
2022-07-29T10:32:56.427Z,4.90
2022-07-29T10:35:14.915Z,5.35
2022-07-29T10:37:36.230Z,4.70
2022-07-29T10:39:50.348Z,4.97
2022-07-29T10:42:09.121Z,4.53
2022-07-29T10:44:23.183Z,31.93
2022-07-29T10:46:29.603Z,6.20
2022-07-29T10:48:34.621Z,6.20
2022-07-29T10:50:59.921Z,4.88
2022-07-29T10:53:08.973Z,8.13
2022-07-29T10:55:34.453Z,5.70
2022-07-29T10:57:54.393Z,5.55
2022-07-29T11:00:34.280Z,4.97
2022-07-29T11:02:49.852Z,5.20
2022-07-29T11:05:05.116Z,5.15
2022-07-29T11:07:10.415Z,5.05
2022-07-29T11:09:25.593Z,5.30
2022-07-29T11:11:43.995Z,5.72
2022-07-29T11:13:56.925Z,5.68
2022-07-29T11:16:07.003Z,5.00
2022-07-29T11:18:14.794Z,4.50
2022-07-29T11:20:37.951Z,5.43
2022-07-29T11:22:46.066Z,5.30
2022-07-29T11:27:23.603Z,5.40
2022-07-29T11:29:39.980Z,5.45
2022-07-29T11:31:45.814Z,5.70
2022-07-29T11:33:56.005Z,5.00
2022-07-29T11:36:16.730Z,5.45
2022-07-29T11:38:29.274Z,5.55
2022-07-29T11:40:40.294Z,5.45
2022-07-29T11:42:52.099Z,5.32
2022-07-29T11:44:57.340Z,5.03
2022-07-29T11:47:03.193Z,5.43
2022-07-29T11:49:09.697Z,5.32
2022-07-29T11:51:14.434Z,5.55
2022-07-29T11:53:20.689Z,6.78
2022-07-29T11:55:32.606Z,5.80
2022-07-29T11:57:47.295Z,5.43
2022-07-29T12:00:12.649Z,5.45
2022-07-29T12:02:37.425Z,5.63
2022-07-29T12:06:56.608Z,5.50
2022-07-29T12:09:14.609Z,5.53
2022-07-29T12:11:21.751Z,5.25
2022-07-29T12:13:40.506Z,5.40
2022-07-29T12:15:53.462Z,4.70
2022-07-29T12:18:03.801Z,5.57
2022-07-29T12:20:10.478Z,5.07
2022-07-29T12:22:27.405Z,5.35
2022-07-29T12:24:45.862Z,5.05
2022-07-29T12:26:53.633Z,4.83
2022-07-29T12:29:03.175Z,5.63
2022-07-29T12:31:08.186Z,5.00
2022-07-29T12:33:18.741Z,5.32
2022-07-29T12:35:24.191Z,4.95
2022-07-29T12:37:41.008Z,5.70
2022-07-29T12:39:46.512Z,5.00
2022-07-29T12:41:53.753Z,5.28
2022-07-29T12:44:11.306Z,5.50
2022-07-29T12:46:17.457Z,4.55
2022-07-29T12:48:35.765Z,5.95
2022-07-29T12:50:55.794Z,5.78
2022-07-29T12:53:12.358Z,4.88
2022-07-29T12:55:18.621Z,5.32
2022-07-29T12:57:23.542Z,5.55
2022-07-29T12:59:29.524Z,5.55
2022-07-29T13:01:39.357Z,5.22
2022-07-29T13:03:57.635Z,5.38
2022-07-29T13:06:04.280Z,5.60
2022-07-29T13:08:29.740Z,5.57
2022-07-29T13:10:38.823Z,5.38
2022-07-29T13:13:04.626Z,4.80
2022-07-29T13:15:19.318Z,5.30
2022-07-29T13:17:25.071Z,5.75
2022-07-29T13:19:36.851Z,5.03
2022-07-29T13:21:41.787Z,4.75
2022-07-29T13:23:46.107Z,5.60
2022-07-29T13:25:50.608Z,5.35
2022-07-29T13:27:56.169Z,4.88
2022-07-29T13:30:02.655Z,5.65
2022-07-29T13:32:11.073Z,5.10
2022-07-29T13:34:15.606Z,4.60
2022-07-29T13:36:20.136Z,4.85
2022-07-29T13:38:31.075Z,4.90
2022-07-29T13:40:36.460Z,5.05
2022-07-29T13:42:40.979Z,5.32
2022-07-29T13:44:45.339Z,5.55
2022-07-29T13:46:49.653Z,5.40
2022-07-29T13:48:55.481Z,5.40
2022-07-29T13:51:00.404Z,5.72
2022-07-29T13:53:05.073Z,4.90
2022-07-29T13:55:13.066Z,5.10
2022-07-29T13:57:17.474Z,5.13
2022-07-29T13:59:21.855Z,5.70
2022-07-29T14:01:27.300Z,5.43
2022-07-29T14:03:32.221Z,5.30
2022-07-29T14:05:38.023Z,5.72
2022-07-29T14:07:42.564Z,5.88
2022-07-29T14:09:46.807Z,5.32
2022-07-29T14:11:52.407Z,6.03
2022-07-29T14:13:56.705Z,5.95
2022-07-29T14:16:01.435Z,5.40
2022-07-29T14:18:06.010Z,5.30
2022-07-29T14:20:11.400Z,5.30
2022-07-29T14:22:17.129Z,5.32
2022-07-29T14:24:23.853Z,5.75
2022-07-29T14:26:28.268Z,5.22
2022-07-29T14:28:32.912Z,5.07
2022-07-29T14:30:37.120Z,4.93
2022-07-29T14:32:41.851Z,5.60
2022-07-29T14:34:46.697Z,5.30
2022-07-29T14:36:51.013Z,5.57
2022-07-29T14:38:57.040Z,5.60
2022-07-29T14:41:01.422Z,5.07
2022-07-29T14:43:06.007Z,5.00
2022-07-29T14:45:11.732Z,5.18
2022-07-29T14:47:15.936Z,5.30
2022-07-29T14:49:20.387Z,5.80
2022-07-29T14:51:24.728Z,5.30
2022-07-29T14:53:36.893Z,5.05
2022-07-29T14:55:43.046Z,5.25
2022-07-29T14:57:47.515Z,5.50
2022-07-29T14:59:52.654Z,5.65
2022-07-29T15:01:57.278Z,4.97
2022-07-29T15:04:01.885Z,5.28
2022-07-29T15:06:06.270Z,5.57
2022-07-29T15:08:10.624Z,5.88
2022-07-29T15:10:15.533Z,6.20
2022-07-29T15:12:21.385Z,5.40
2022-07-29T15:14:25.674Z,5.72
2022-07-29T15:16:30.239Z,5.78
2022-07-29T15:18:34.667Z,5.18
2022-07-29T15:20:39.043Z,5.55
2022-07-29T15:22:44.003Z,5.53
2022-07-29T15:24:48.318Z,5.20
2022-07-29T15:26:52.760Z,6.00
2022-07-29T15:28:58.973Z,5.90
2022-07-29T15:31:07.977Z,5.53
2022-07-29T15:33:12.487Z,5.75
2022-07-29T15:35:16.779Z,5.95
2022-07-29T15:37:21.139Z,5.90
2022-07-29T15:39:25.540Z,5.47
2022-07-29T15:41:29.825Z,5.07
2022-07-29T15:43:35.857Z,5.78
2022-07-29T15:45:42.302Z,5.47
2022-07-29T15:47:45.571Z,5.50
2022-07-29T15:49:50.034Z,5.60
2022-07-29T15:51:59.880Z,5.07
2022-07-29T15:54:22.211Z,5.70
2022-07-29T15:56:26.571Z,5.40
2022-07-29T15:58:30.977Z,5.25
2022-07-29T16:00:36.158Z,5.30
2022-07-29T16:02:42.000Z,5.55
2022-07-29T16:04:46.467Z,6.18
2022-07-29T16:06:51.643Z,6.32
2022-07-29T16:08:55.996Z,6.20
2022-07-29T16:11:00.438Z,6.68
2022-07-29T16:13:05.156Z,7.03
2022-07-29T16:15:11.030Z,6.65
2022-07-29T16:17:15.401Z,6.15
2022-07-29T16:19:23.442Z,6.32
2022-07-29T16:21:31.849Z,6.57
2022-07-29T16:23:36.331Z,6.25
2022-07-29T16:25:59.227Z,6.82
2022-07-29T16:28:04.689Z,6.45
2022-07-29T16:30:10.890Z,7.22
2022-07-29T16:32:15.357Z,6.82
2022-07-29T16:34:39.013Z,6.25
2022-07-29T16:36:47.618Z,6.78
2022-07-29T16:38:55.718Z,6.47
2022-07-29T16:41:00.252Z,6.40
2022-07-29T16:43:04.655Z,6.80
2022-07-29T16:45:13.817Z,7.55
2022-07-29T16:47:18.423Z,7.32
2022-07-29T16:49:23.581Z,7.45
2022-07-29T16:53:48.969Z,7.80
2022-07-29T16:55:56.800Z,8.35
2022-07-29T16:58:03.630Z,7.53
2022-07-29T17:00:18.919Z,7.40
2022-07-29T17:02:32.562Z,7.65
2022-07-29T17:07:28.544Z,7.15
2022-07-29T17:10:04.381Z,7.45
2022-07-29T17:13:08.964Z,7.72
2022-07-29T17:15:15.956Z,8.13
2022-07-29T17:17:20.675Z,7.43
2022-07-29T17:19:42.731Z,7.53
2022-07-29T17:21:49.243Z,7.80
2022-07-29T17:23:55.472Z,7.53
2022-07-29T17:26:00.035Z,7.85
2022-07-29T17:28:04.434Z,7.88
2022-07-29T17:30:10.097Z,8.30
2022-07-29T17:32:14.879Z,7.68
2022-07-29T17:34:19.384Z,8.27
2022-07-29T17:36:26.892Z,8.40
2022-07-29T17:38:31.150Z,8.93
2022-07-29T17:40:37.050Z,8.80
2022-07-29T17:42:41.936Z,10.13
2022-07-29T17:44:46.297Z,8.52
2022-07-29T17:46:50.959Z,7.95
2022-07-29T17:48:57.052Z,7.97
2022-07-29T17:51:01.836Z,8.25
2022-07-29T17:53:09.579Z,7.97
2022-07-29T17:55:20.872Z,7.53
2022-07-29T17:57:27.234Z,8.00
2022-07-29T17:59:31.708Z,8.52
2022-07-29T18:01:36.437Z,8.00
2022-07-29T18:03:40.833Z,8.27
2022-07-29T18:05:45.327Z,8.88
2022-07-29T18:07:50.203Z,7.82
2022-07-29T18:09:57.457Z,8.73
2022-07-29T18:12:05.117Z,7.82
2022-07-29T18:14:10.750Z,8.02
2022-07-29T18:16:15.416Z,8.07
2022-07-29T18:18:19.771Z,8.30
2022-07-29T18:20:24.185Z,8.23
2022-07-29T18:22:28.438Z,8.20
2022-07-29T18:24:32.762Z,7.55
2022-07-29T18:26:37.088Z,8.10
2022-07-29T18:28:41.929Z,8.77
2022-07-29T18:30:48.391Z,7.93
2022-07-29T18:33:19.223Z,8.32
2022-07-29T18:35:18.054Z,8.43
2022-07-29T18:38:00.267Z,7.75
2022-07-29T18:39:46.926Z,7.70
2022-07-29T18:41:52.465Z,9.30
2022-07-29T18:43:56.833Z,8.75
2022-07-29T18:46:06.080Z,8.60
2022-07-29T18:48:12.960Z,7.72
2022-07-29T18:50:19.605Z,8.40
2022-07-29T18:52:24.510Z,8.57
2022-07-29T18:54:30.806Z,8.23
2022-07-29T18:56:35.095Z,8.38
2022-07-29T18:58:39.466Z,8.25
2022-07-29T19:00:43.717Z,7.95
2022-07-29T19:02:49.438Z,8.30
2022-07-29T19:04:57.851Z,8.65
2022-07-29T19:07:03.481Z,8.60
2022-07-29T19:09:08.758Z,9.32
2022-07-29T19:11:13.413Z,7.63
2022-07-29T19:13:17.821Z,8.57
2022-07-29T19:15:22.227Z,8.93
2022-07-29T19:17:26.701Z,9.25
2022-07-29T19:19:34.166Z,9.75
2022-07-29T19:21:38.474Z,8.68
2022-07-29T19:24:06.009Z,9.13
2022-07-29T19:26:10.475Z,8.60
2022-07-29T19:28:24.794Z,8.63
2022-07-29T19:30:29.566Z,8.48
2022-07-29T19:32:33.932Z,9.02
2022-07-29T19:34:40.175Z,8.07
2022-07-29T19:36:54.384Z,8.88
2022-07-29T19:39:00.160Z,8.45
2022-07-29T19:41:06.276Z,9.05
2022-07-29T19:43:51.442Z,8.48
2022-07-29T19:45:40.322Z,8.35
2022-07-29T19:47:44.883Z,8.48
2022-07-29T19:49:50.760Z,8.73
2022-07-29T19:51:55.041Z,8.68
2022-07-29T19:53:59.426Z,8.48
2022-07-29T19:56:03.831Z,8.45
2022-07-29T19:58:09.010Z,8.30
2022-07-29T20:00:15.389Z,9.45
2022-07-29T20:02:19.834Z,8.82
2022-07-29T20:04:24.214Z,9.02
2022-07-29T20:06:30.009Z,9.40
2022-07-29T20:08:34.446Z,8.85
2022-07-29T20:10:39.174Z,8.30
2022-07-29T20:12:43.845Z,8.75
2022-07-29T20:14:49.210Z,8.68
2022-07-29T20:16:54.827Z,9.07
2022-07-29T20:19:00.014Z,9.75
2022-07-29T20:21:05.021Z,9.10
2022-07-29T20:23:11.954Z,10.30
2022-07-29T20:25:16.547Z,9.25
2022-07-29T20:27:22.669Z,9.43
2022-07-29T20:29:27.101Z,9.63
2022-07-29T20:31:32.149Z,9.73
2022-07-29T20:33:36.559Z,10.20
2022-07-29T20:35:41.338Z,10.35
2022-07-29T20:37:52.342Z,9.95
2022-07-29T20:40:03.282Z,10.45
2022-07-29T20:42:11.037Z,10.65
2022-07-29T20:44:15.999Z,10.23
2022-07-29T20:46:23.999Z,9.77
2022-07-29T20:48:28.423Z,10.65
2022-07-29T20:50:32.966Z,10.18
2022-07-29T20:52:39.613Z,10.95
2022-07-29T20:54:43.936Z,11.27
2022-07-29T20:56:49.612Z,11.52
2022-07-29T20:58:54.083Z,10.13
2022-07-29T21:01:07.835Z,10.77
2022-07-29T21:03:12.290Z,10.45
2022-07-29T21:05:17.533Z,11.35
2022-07-29T21:07:22.045Z,10.45
2022-07-29T21:09:26.397Z,10.55
2022-07-29T21:11:43.855Z,11.27
2022-07-29T21:13:50.685Z,10.80
2022-07-29T21:15:59.069Z,10.65
2022-07-29T21:18:06.595Z,11.43
2022-07-29T21:20:12.138Z,11.80
2022-07-29T21:22:16.608Z,11.38
2022-07-29T21:24:21.573Z,11.75
2022-07-29T21:26:25.984Z,12.30
2022-07-29T21:28:36.996Z,10.90
2022-07-29T21:30:43.174Z,11.15
2022-07-29T21:32:48.005Z,11.32
2022-07-29T21:34:58.476Z,11.43
2022-07-29T21:37:03.177Z,11.45
2022-07-29T21:39:11.551Z,12.75
2022-07-29T21:41:16.475Z,11.07
2022-07-29T21:43:21.751Z,10.95
2022-07-29T21:45:26.259Z,12.25
2022-07-29T21:47:32.013Z,11.00
2022-07-29T21:49:36.506Z,12.65
2022-07-29T21:51:41.583Z,11.60
2022-07-29T21:53:50.631Z,12.00
2022-07-29T21:55:57.428Z,10.98
2022-07-29T21:58:01.972Z,11.93
2022-07-29T22:00:07.989Z,11.52
2022-07-29T22:02:17.017Z,11.55
2022-07-29T22:04:22.999Z,11.57
2022-07-29T22:06:34.753Z,12.20
2022-07-29T22:08:40.332Z,11.48
2022-07-29T22:10:44.899Z,12.23
2022-07-29T22:12:53.959Z,11.57
2022-07-29T22:14:58.270Z,12.32
2022-07-29T22:17:03.214Z,12.68
2022-07-29T22:19:07.867Z,11.52
2022-07-29T22:21:13.718Z,11.07
2022-07-29T22:23:18.077Z,11.90
2022-07-29T22:25:22.588Z,10.32
2022-07-29T22:27:26.921Z,11.35
2022-07-29T22:29:31.423Z,11.45
2022-07-29T22:31:35.761Z,11.40
2022-07-29T22:33:40.146Z,10.90
2022-07-29T22:35:54.492Z,10.93
2022-07-29T22:38:03.237Z,11.90
2022-07-29T22:40:36.945Z,11.60
2022-07-29T22:43:11.028Z,10.25
2022-07-29T22:46:09.809Z,10.18
2022-07-29T22:49:41.666Z,10.43
2022-07-29T22:52:33.315Z,11.00
2022-07-29T22:54:39.544Z,9.85
2022-07-29T22:56:43.790Z,10.30
2022-07-29T22:58:49.884Z,10.18
2022-07-29T23:00:54.661Z,10.07
2022-07-29T23:02:59.635Z,9.52
2022-07-29T23:05:04.137Z,10.98
2022-07-29T23:07:08.740Z,10.00
2022-07-29T23:09:12.988Z,9.75
2022-07-29T23:11:19.016Z,9.43
2022-07-29T23:13:23.447Z,10.35
2022-07-29T23:15:27.989Z,9.75
2022-07-29T23:17:32.234Z,10.55
2022-07-29T23:19:41.097Z,9.95
2022-07-29T23:21:47.747Z,10.00
2022-07-29T23:23:52.179Z,10.00
2022-07-29T23:25:56.510Z,10.18
2022-07-29T23:28:02.658Z,9.93
2022-07-29T23:30:08.079Z,9.95
2022-07-29T23:32:12.505Z,9.52
2022-07-29T23:34:16.789Z,10.40
2022-07-29T23:36:21.846Z,10.50
2022-07-29T23:38:26.447Z,9.63
2022-07-29T23:40:31.043Z,10.20
2022-07-29T23:42:35.550Z,10.07
2022-07-29T23:44:41.550Z,9.85
2022-07-29T23:46:46.138Z,10.10
2022-07-29T23:48:50.552Z,9.63
2022-07-29T23:50:57.217Z,10.15
2022-07-29T23:53:01.654Z,10.35
2022-07-29T23:55:37.378Z,9.75
2022-07-29T23:57:31.375Z,9.68
2022-07-29T23:59:35.819Z,10.20
